Архив погоды в Барнауле

Метеограмма Барнаул
Суббота, 24 Июня
Время местн. Темп Ветер Видим Явления Облачность нижн/средн/верх Атм. давл. Влжн Точка росы ВНГО R Сост. почвы Tg s
Напр Скр Прв ур.ст ур.м изм
21:00 +23.9° В,Ю-В 2 - 10 км - облачно 735 751 +0.2 76% +19.5° 1 км - - - -
18:00 +25.5° В,С-В 2 - 10 км - преимущественно облачно 735 751 -0.7 67% +19° 1 км 0 - - -
15:00 +27.5° В,С-В 3 - 10 км - переменная облачность 736 751 -1 54% +17.4° - - - - -
12:00 +24.6° В,С-В 3 - 10 км - облачно с прояснениями 737 752 -0.9 60% +16.3° 1 км - - - -
09:00 +22° В,С-В 2 - 10 км - облачно с прояснениями 738 753 -0.6 65% +15.1° 1 км - - - -
06:00 +16.9° С-В 1 - 10 км - облачно с прояснениями 738 754 -0.2 84% +14.1° - 0 Сухая (без трещин) - -
03:00 +16.8° С-В 2 - 10 км - ясно 738 754 -0.8 82% +13.8° более 2.5 км - - - -
00:00 +17.4° С 1 - 10 км - ясно 739 755 +0.2 78% +13.5° более 2.5 км - - - -
Пятница, 23 Июня
Время местн. Темп Ветер Видим Явления Облачность нижн/средн/верх Атм. давл. Влжн Точка росы ВНГО R Сост. почвы Tg s
Напр Скр Прв ур.ст ур.м изм
21:00 +20° С 1 - 10 км - ясно 739 755 -0.1 72% +14.9° более 2.5 км - - - -
18:00 +25.9° С 1 - 10 км - переменная облачность 739 755 -0.2 43% +12.5° 1.5 км 0 - - -
15:00 +26.8° Ю,Ю-З 1 - 10 км - облачно с прояснениями 739 755 -0.6 43% +13° 1.5 км - - - -
12:00 +25.6° З 2 - 10 км - переменная облачность 740 755 0 45% +12.8° 1.5 км - - - -
09:00 +22.7° З,С-З 2 - 10 км - ясно 740 756 +0.7 70% +16.9° более 2.5 км - - - -
06:00 +19.2° З 2 - 10 км - ясно 739 755 +0.3 83% +16.2° более 2.5 км 0 Влажная (без луж) +15° -
03:00 +16.4° штиль 0 - 10 км - ясно 739 755 +0.5 90% +14.8° более 2.5 км - - - -
00:00 +17.1° штиль 0 - 10 км - ясно 738 754 +0.8 93% +16° более 2.5 км - - - -
Четверг, 22 Июня
Время местн. Темп Ветер Видим Явления Облачность нижн/средн/верх Атм. давл. Влжн Точка росы ВНГО R Сост. почвы Tg s
Напр Скр Прв ур.ст ур.м изм
21:00 +23.2° Ю-З 2 - 10 км - переменная облачность 738 753 +0.3 75% +18.5° более 2.5 км - - - -
18:00 +27.7° Ю,Ю-З 3 - 10 км небо без изменений {гроза, ливневые осадки} переменная облачность 737 753 -0.2 52% +17° 1.5 км - - - -
15:00 +26.7° В 1 - 10 км ливневый дождь {гроза} облачно с прояснениями 738 753 -0.8 61% +18.6° 1 км - - - -
12:00 +26.1° В 1 - 10 км - облачно 738 754 -0.5 61% +18° 1 км - - - -
09:00 +26.2° В 1 - 10 км - облачно с прояснениями 739 754 +0.1 61% +18.1° - - - - -
06:00 +20.4° С-В 1 - 10 км - переменная облачность 739 755 -0.2 78% +16.4° более 2.5 км 0 Влажная (без луж) - -
03:00 +15.3° штиль 0 - 10 км - переменная облачность 739 755 -0.4 94% +14.4° более 2.5 км - - - -
00:00 +16.8° штиль 0 - 10 км - ясно 739 755 +0.6 94% +15.8° более 2.5 км - - - -
Среда, 21 Июня
Время местн. Темп Ветер Видим Явления Облачность нижн/средн/верх Атм. давл. Влжн Точка росы ВНГО R Сост. почвы Tg s
Напр Скр Прв ур.ст ур.м изм
21:00 +21.2° штиль 0 - 10 км - ясно 739 755 +1.3 79% +17.5° более 2.5 км - - - -
18:00 +27.3° З 2 - 10 км - переменная облачность 737 753 +0.2 50% +16.1° 1.5 км 0 - - -